Time;durP1;ratioP1;P1;durP2;ratioP2;P2;SDS_P1;SDS_P2;PMS_P1;PMS_P2;Temp;Humidity;BMP_temperature;BMP_pressure;BME280_temperature;BME280_humidity;BME280_pressure;Samples;Min_cycle;Max_cycle;Signal;HPM_P1;HPM_P2
2024/01/08 00:00:35;;;;;;;4.07;3.25;;;;;;;15.93;43.29;93226.31;4973344;28;20043;-92
2024/01/08 00:03:01;;;;;;;4.22;3.42;;;;;;;15.85;43.18;93225.34;4988757;28;20061;-92
2024/01/08 00:05:30;;;;;;;4.75;3.55;;;;;;;15.84;43.47;93229.31;4964080;28;20106;-93
2024/01/08 00:07:57;;;;;;;3.95;3.33;;;;;;;15.86;43.34;93232.28;4981549;28;20043;-92
2024/01/08 00:10:26;;;;;;;4.13;3.38;;;;;;;15.81;43.38;93228.31;4979742;28;20054;-92
2024/01/08 00:12:51;;;;;;;3.70;3.10;;;;;;;15.80;43.55;93224.13;4980582;28;20046;-92
2024/01/08 00:15:18;;;;;;;3.83;3.35;;;;;;;15.80;43.37;93237.00;4968942;28;20037;-93
2024/01/08 00:17:45;;;;;;;4.10;3.20;;;;;;;15.85;43.31;93236.25;4987134;28;20093;-91
2024/01/08 00:20:17;;;;;;;4.10;3.45;;;;;;;15.89;43.21;93232.03;4980394;28;20081;-93
2024/01/08 00:22:43;;;;;;;4.38;3.40;;;;;;;15.88;43.15;93238.72;4980174;28;20062;-92
2024/01/08 00:25:08;;;;;;;3.65;3.33;;;;;;;15.87;43.17;93229.06;4995826;28;20073;-93
2024/01/08 00:27:34;;;;;;;4.10;3.15;;;;;;;15.93;43.32;93231.78;4980044;28;20034;-92
2024/01/08 00:30:00;;;;;;;4.63;3.78;;;;;;;15.89;43.10;93231.28;4980757;28;20045;-91
2024/01/08 00:32:26;;;;;;;5.53;3.35;;;;;;;15.88;43.22;93232.53;4976156;28;20053;-93
2024/01/08 00:34:51;;;;;;;3.97;3.17;;;;;;;15.94;42.55;93239.47;4975178;28;20035;-93
2024/01/08 00:37:18;;;;;;;4.00;3.13;;;;;;;15.92;43.14;93233.75;4995481;28;20041;-92
2024/01/08 00:39:44;;;;;;;4.90;3.38;;;;;;;15.88;42.98;93232.53;4980758;28;20030;-93
2024/01/08 00:42:10;;;;;;;4.78;3.83;;;;;;;15.86;43.20;93227.56;4994196;28;20128;-93
2024/01/08 00:44:37;;;;;;;3.70;3.28;;;;;;;15.91;43.43;93236.97;4995732;28;20042;-92
2024/01/08 00:47:03;;;;;;;3.83;3.35;;;;;;;15.92;42.97;93243.91;4958851;28;20066;-92
2024/01/08 00:49:28;;;;;;;4.20;3.50;;;;;;;15.94;42.99;93235.97;4958703;28;20051;-93
2024/01/08 00:51:54;;;;;;;4.05;3.20;;;;;;;15.94;43.08;93242.19;4961673;28;20034;-92
2024/01/08 00:54:20;;;;;;;3.78;2.92;;;;;;;15.96;42.58;93247.13;4985598;28;20085;-93
2024/01/08 00:56:49;;;;;;;3.85;3.28;;;;;;;15.88;42.98;93249.63;4961188;28;20053;-93
2024/01/08 00:59:14;;;;;;;3.72;3.35;;;;;;;15.91;43.19;93245.91;4991435;28;20421;-94
2024/01/08 01:01:42;;;;;;;6.13;3.45;;;;;;;15.92;43.10;93252.84;4938819;29;20039;-92
2024/01/08 01:04:07;;;;;;;4.30;3.47;;;;;;;15.88;43.28;93255.06;4908206;29;20072;-92
2024/01/08 01:06:33;;;;;;;5.32;4.00;;;;;;;15.92;43.03;93263.00;4968073;28;20118;-92
2024/01/08 01:09:00;;;;;;;5.28;3.47;;;;;;;15.97;43.10;93263.00;4936109;29;20254;-92
2024/01/08 01:11:26;;;;;;;4.10;3.40;;;;;;;15.89;43.04;93264.00;4908985;29;20067;-92
2024/01/08 01:13:52;;;;;;;4.68;3.53;;;;;;;15.88;43.24;93262.50;4920716;29;20050;-92
2024/01/08 01:16:19;;;;;;;4.22;3.83;;;;;;;15.93;43.21;93267.22;4924124;29;20039;-92
2024/01/08 01:18:45;;;;;;;4.88;3.88;;;;;;;15.85;43.24;93266.22;4948741;28;20048;-93
2024/01/08 01:21:14;;;;;;;4.22;3.40;;;;;;;15.85;43.43;93264.25;4897986;29;20103;-92
2024/01/08 01:23:40;;;;;;;3.97;3.17;;;;;;;15.89;43.02;93272.16;4916564;29;20048;-92
2024/01/08 01:26:07;;;;;;;4.07;3.40;;;;;;;15.82;43.17;93267.22;4915333;29;20050;-92
2024/01/08 01:28:33;;;;;;;4.40;3.35;;;;;;;15.86;43.27;93270.44;4916302;29;20134;-93
2024/01/08 01:31:03;;;;;;;3.58;3.28;;;;;;;15.84;43.06;93264.72;4881832;29;20085;-92
2024/01/08 01:33:28;;;;;;;3.00;2.70;;;;;;;15.86;43.20;93268.44;4947637;28;20110;-91
2024/01/08 01:35:54;;;;;;;4.43;3.38;;;;;;;15.92;43.27;93271.19;4983635;28;20280;-92
2024/01/08 01:38:21;;;;;;;3.92;3.30;;;;;;;15.87;43.23;93266.47;4959510;28;20046;-92
2024/01/08 01:40:46;;;;;;;4.72;3.25;;;;;;;15.97;42.74;93270.44;4973751;28;20042;-93
2024/01/08 01:43:25;;;;;;;4.57;3.53;;;;;;;15.91;42.77;93272.41;4973800;28;20069;-91
2024/01/08 01:45:56;;;;;;;4.35;3.78;;;;;;;15.95;42.37;93264.72;4933081;28;20557;-92
2024/01/08 01:48:28;;;;;;;5.53;3.97;;;;;;;15.93;42.20;93265.22;4921015;28;20131;-93
2024/01/08 01:50:55;;;;;;;3.35;2.90;;;;;;;15.91;42.32;93270.44;4942157;28;20156;-92
2024/01/08 01:53:20;;;;;;;3.90;3.08;;;;;;;15.98;42.10;93272.66;4942008;28;20046;-92
2024/01/08 01:55:47;;;;;;;4.13;3.33;;;;;;;15.94;42.73;93268.69;4942022;28;20059;-92
2024/01/08 01:58:16;;;;;;;3.55;3.10;;;;;;;15.90;42.23;93270.94;4956132;28;20520;-92
2024/01/08 02:00:43;;;;;;;4.13;3.72;;;;;;;15.87;42.76;93271.91;4967626;28;20046;-92
2024/01/08 02:03:09;;;;;;;4.35;3.30;;;;;;;15.89;43.11;93266.72;4976171;28;20495;-93
2024/01/08 02:05:36;;;;;;;3.70;3.28;;;;;;;15.92;42.30;93268.44;4944098;28;20062;-92
2024/01/08 02:08:03;;;;;;;3.50;3.05;;;;;;;15.89;42.64;93267.47;4977032;28;20042;-92
2024/01/08 02:10:31;;;;;;;3.17;2.85;;;;;;;15.92;42.42;93268.44;4952077;28;20050;-92
2024/01/08 02:12:59;;;;;;;4.05;3.28;;;;;;;15.91;42.61;93270.44;4919007;28;20066;-92
2024/01/08 02:15:25;;;;;;;3.97;3.22;;;;;;;15.91;43.29;93267.72;4901760;29;20107;-92
2024/01/08 02:17:51;;;;;;;5.07;3.58;;;;;;;15.91;42.92;93264.97;4934668;29;20054;-93
2024/01/08 02:20:17;;;;;;;4.90;3.55;;;;;;;15.90;42.89;93268.94;4911194;29;20049;-90
2024/01/08 02:22:44;;;;;;;4.13;3.58;;;;;;;15.91;42.86;93270.44;4904888;29;20040;-93
2024/01/08 02:25:12;;;;;;;4.57;3.08;;;;;;;15.91;42.97;93262.25;4895706;29;20048;-93
2024/01/08 02:27:37;;;;;;;4.20;3.35;;;;;;;15.91;42.74;93269.69;4930964;28;20040;-93
2024/01/08 02:30:04;;;;;;;4.03;3.30;;;;;;;15.91;42.84;93275.13;4910927;28;20043;-91
2024/01/08 02:32:30;;;;;;;4.53;3.78;;;;;;;15.93;43.11;93264.47;4878781;29;20286;-92
2024/01/08 02:34:55;;;;;;;3.83;3.40;;;;;;;15.85;43.10;93272.41;4895585;29;20484;-92
2024/01/08 02:37:22;;;;;;;3.88;3.47;;;;;;;15.85;43.26;93277.88;4880292;29;20055;-92
2024/01/08 02:39:49;;;;;;;4.18;3.72;;;;;;;15.84;43.21;93272.91;4896821;29;20068;-92
2024/01/08 02:42:20;;;;;;;5.72;3.50;;;;;;;15.84;43.21;93276.38;4895177;29;20048;-92
2024/01/08 02:44:47;;;;;;;3.90;2.80;;;;;;;15.83;42.88;93282.31;4865012;29;20059;-91
2024/01/08 02:47:21;;;;;;;4.22;3.58;;;;;;;15.82;42.91;93267.22;4879147;29;20128;-93
2024/01/08 02:49:47;;;;;;;4.40;3.30;;;;;;;15.79;42.92;93273.69;4885254;29;20479;-92
2024/01/08 02:52:12;;;;;;;4.63;3.25;;;;;;;15.82;43.18;93276.13;4914189;29;20142;-92
2024/01/08 02:54:38;;;;;;;3.25;2.95;;;;;;;15.91;42.54;93275.88;4917456;29;20035;-93
2024/01/08 02:57:03;;;;;;;4.00;3.38;;;;;;;15.89;42.90;93272.91;4982437;28;20051;-92
2024/01/08 02:59:30;;;;;;;3.97;3.17;;;;;;;15.93;42.82;93275.38;4952273;28;20307;-92
2024/01/08 03:01:55;;;;;;;4.38;3.40;;;;;;;15.93;42.89;93273.41;4951037;28;20086;-92
2024/01/08 03:04:22;;;;;;;3.92;3.47;;;;;;;15.85;43.13;93266.22;4968453;28;20054;-93
2024/01/08 03:06:48;;;;;;;3.83;3.42;;;;;;;15.90;42.45;93271.69;4937169;28;20078;-92
2024/01/08 03:09:22;;;;;;;3.83;3.38;;;;;;;15.91;42.83;93266.97;4952155;29;20054;-91
2024/01/08 03:11:48;;;;;;;4.85;3.30;;;;;;;15.88;42.57;93267.97;4920087;29;20039;-93
2024/01/08 03:14:15;;;;;;;3.72;3.38;;;;;;;15.92;42.90;93265.72;4933854;28;20079;-93
2024/01/08 03:16:41;;;;;;;4.53;3.30;;;;;;;15.87;43.20;93263.75;4979889;28;20042;-92
2024/01/08 03:19:07;;;;;;;4.10;3.50;;;;;;;15.83;42.88;93266.72;4959189;28;20034;-91
2024/01/08 03:21:34;;;;;;;3.45;2.92;;;;;;;15.84;42.88;93272.91;4976022;28;20124;-92
2024/01/08 03:24:00;;;;;;;4.68;3.58;;;;;;;15.85;42.97;93272.41;4976013;28;20043;-91
2024/01/08 03:26:25;;;;;;;4.30;3.70;;;;;;;15.87;43.11;93283.56;4950043;28;20050;-90
2024/01/08 03:28:51;;;;;;;4.22;3.53;;;;;;;15.83;42.91;93285.78;4958968;28;20038;-92
2024/01/08 03:31:24;;;;;;;3.65;3.03;;;;;;;15.86;42.92;93289.50;4958758;28;20038;-93
2024/01/08 03:33:51;;;;;;;3.97;3.28;;;;;;;15.90;43.01;93287.28;4977305;28;20129;-94
2024/01/08 03:36:17;;;;;;;4.38;3.40;;;;;;;15.96;42.18;93285.31;4976220;28;20408;-93
2024/01/08 03:38:50;;;;;;;4.18;3.15;;;;;;;15.85;42.56;93288.78;4960462;28;20045;-92
2024/01/08 03:41:16;;;;;;;3.88;3.40;;;;;;;15.93;42.29;93292.50;4979786;28;20046;-91
2024/01/08 03:43:43;;;;;;;3.65;2.97;;;;;;;15.88;42.63;93276.88;4963746;28;20081;-92
2024/01/08 03:46:09;;;;;;;4.18;3.67;;;;;;;15.83;43.00;93285.78;4963173;28;20045;-90
2024/01/08 03:48:35;;;;;;;3.97;3.22;;;;;;;15.88;42.44;93292.50;4963362;28;20046;-91
2024/01/08 03:51:03;;;;;;;3.92;3.40;;;;;;;15.89;42.48;93280.34;4979457;28;20078;-91
2024/01/08 03:53:28;;;;;;;4.57;3.70;;;;;;;15.82;42.80;93275.38;4994769;28;20074;-93
2024/01/08 03:55:54;;;;;;;5.15;3.67;;;;;;;15.89;42.94;93277.63;4963030;28;20042;-92
2024/01/08 03:58:19;;;;;;;4.35;3.33;;;;;;;15.85;42.70;93274.41;4962127;28;20050;-93
2024/01/08 04:00:45;;;;;;;4.22;3.10;;;;;;;15.83;43.22;93285.06;4963307;28;20509;-91
2024/01/08 04:03:10;;;;;;;4.15;3.58;;;;;;;15.84;42.81;93292.00;4963265;28;20560;-91
2024/01/08 04:05:37;;;;;;;3.45;3.15;;;;;;;15.83;42.72;93287.78;4979097;28;20054;-91
2024/01/08 04:08:03;;;;;;;4.22;3.58;;;;;;;15.81;43.13;93290.25;4962197;28;20096;-91
2024/01/08 04:10:30;;;;;;;4.13;3.17;;;;;;;15.83;42.97;93285.78;4978497;28;20457;-91
2024/01/08 04:13:06;;;;;;;3.65;3.33;;;;;;;15.80;43.13;93296.97;4963220;28;20034;-91
2024/01/08 04:15:32;;;;;;;3.80;3.13;;;;;;;15.88;42.05;93290.50;4969683;28;20069;-91
2024/01/08 04:17:58;;;;;;;4.13;3.20;;;;;;;15.77;42.81;93296.72;4962160;28;20058;-91
2024/01/08 04:20:24;;;;;;;4.15;3.42;;;;;;;15.85;42.98;93304.38;4960686;28;20039;-90
2024/01/08 04:22:50;;;;;;;4.70;3.72;;;;;;;15.87;42.58;93301.91;4963758;28;20133;-93
2024/01/08 04:25:16;;;;;;;3.92;3.35;;;;;;;15.84;42.59;93303.63;4971897;28;20127;-91
2024/01/08 04:27:45;;;;;;;3.55;2.95;;;;;;;15.82;42.88;93303.38;4978965;28;20500;-92
2024/01/08 04:30:11;;;;;;;4.53;3.25;;;;;;;15.84;43.05;93319.25;4966485;28;20804;-93
2024/01/08 04:32:37;;;;;;;4.72;3.80;;;;;;;15.87;42.64;93321.72;4967559;28;20124;-89
2024/01/08 04:35:03;;;;;;;8.30;3.72;;;;;;;15.86;42.44;93316.78;4942971;28;20042;-90
2024/01/08 04:37:29;;;;;;;5.40;3.50;;;;;;;15.88;42.23;93322.47;4972864;28;20148;-93
2024/01/08 04:39:54;;;;;;;5.05;3.78;;;;;;;15.86;42.31;93320.25;4960173;28;20050;-91
2024/01/08 04:42:22;;;;;;;14.98;9.50;;;;;;;15.80;42.97;93329.69;4962786;28;20050;-91
2024/01/08 04:44:50;;;;;;;32.97;21.80;;;;;;;15.80;42.59;93327.69;4972782;28;20046;-91
2024/01/08 04:47:17;;;;;;;24.67;16.25;;;;;;;15.86;42.79;93333.13;4961284;28;20053;-94
2024/01/08 04:49:42;;;;;;;10.20;7.18;;;;;;;15.84;42.69;93336.34;4935609;28;20051;-94
2024/01/08 04:52:08;;;;;;;17.77;10.25;;;;;;;15.80;42.99;93335.88;4924667;28;20059;-91
2024/01/08 04:54:33;;;;;;;19.85;11.55;;;;;;;15.87;42.74;93332.63;4903641;29;20573;-90
2024/01/08 04:56:58;;;;;;;18.35;12.07;;;;;;;15.91;42.64;93338.59;4913952;28;20082;-92
2024/01/08 04:59:24;;;;;;;20.95;11.85;;;;;;;15.87;42.41;93337.34;4922136;28;20050;-91
2024/01/08 05:01:50;;;;;;;20.00;12.60;;;;;;;15.92;42.25;93331.91;4918527;28;20046;-92
2024/01/08 05:04:18;;;;;;;30.85;12.00;;;;;;;15.74;37.07;93338.59;4932758;29;20047;-93
2024/01/08 05:06:53;;;;;;;40.92;13.05;;;;;;;15.64;37.95;93342.03;4933432;28;20143;-95
2024/01/08 05:15:20;;;;;;;55.85;20.67;;;;;;;15.69;40.16;93352.94;3427926;23;20049;-93
2024/01/08 05:18:14;;;;;;;;;;;;;;;;;;;;;
2024/01/08 05:20:39;;;;;;;69.18;22.27;;;;;;;15.80;41.08;93357.69;4889711;29;21442;-89
2024/01/08 05:23:05;;;;;;;65.47;23.27;;;;;;;15.81;41.53;93359.13;4912556;28;20220;-92
2024/01/08 05:26:01;;;;;;;65.63;22.25;;;;;;;15.84;41.40;93341.06;4907618;29;20050;-89
2024/01/08 05:28:28;;;;;;;60.40;22.75;;;;;;;15.76;41.31;93351.72;4915738;28;20070;-92
2024/01/08 05:30:54;;;;;;;50.42;21.55;;;;;;;15.75;41.55;93358.41;4912783;28;20047;-92
2024/01/08 05:33:22;;;;;;;67.07;21.83;;;;;;;15.69;39.52;93360.38;4923096;28;20134;-92
2024/01/08 05:35:47;;;;;;;59.50;22.38;;;;;;;15.69;40.80;93363.84;4927421;28;20046;-89
2024/01/08 05:38:13;;;;;;;59.85;22.85;;;;;;;15.71;40.80;93371.53;4935831;28;20047;-91
2024/01/08 05:40:39;;;;;;;62.22;21.80;;;;;;;15.76;41.24;93365.34;4928047;28;20116;-91
2024/01/08 05:43:04;;;;;;;70.40;22.00;;;;;;;15.83;40.79;93373.00;4935514;28;20043;-90
2024/01/08 05:45:32;;;;;;;141.52;30.80;;;;;;;15.84;41.31;93371.03;4918323;28;20046;-91
2024/01/08 05:47:58;;;;;;;90.43;29.60;;;;;;;15.82;41.06;93370.78;4933752;28;20035;-91
2024/01/08 05:50:27;;;;;;;91.40;27.95;;;;;;;15.79;41.51;93367.09;4939369;28;20049;-89
2024/01/08 05:52:56;;;;;;;98.45;32.25;;;;;;;15.88;41.10;93377.00;4919509;28;20026;-89
2024/01/08 05:55:22;;;;;;;111.82;30.48;;;;;;;15.77;41.76;93373.03;4926112;28;20057;-91
2024/01/08 05:57:47;;;;;;;94.60;29.75;;;;;;;15.77;41.16;93372.28;4932405;28;20049;-90
2024/01/08 06:00:14;;;;;;;134.38;30.30;;;;;;;15.66;39.78;93377.72;4903332;28;20627;-91
2024/01/08 06:02:40;;;;;;;107.82;28.17;;;;;;;15.75;40.30;93372.78;4912091;28;20073;-90
2024/01/08 06:05:07;;;;;;;112.80;29.33;;;;;;;15.74;40.70;93362.38;4910856;28;20039;-89
2024/01/08 06:07:33;;;;;;;82.03;27.17;;;;;;;15.82;40.73;93368.06;4934576;28;20043;-90
2024/01/08 06:09:59;;;;;;;78.40;31.17;;;;;;;15.56;36.35;93371.75;4929319;28;20050;-90
2024/01/08 06:12:24;;;;;;;99.43;33.25;;;;;;;15.47;36.62;93366.50;4906712;28;20134;-91
2024/01/08 06:14:50;;;;;;;94.03;35.45;;;;;;;15.53;36.82;93372.72;4918459;28;20042;-88
2024/01/08 06:17:15;;;;;;;105.70;37.90;;;;;;;15.61;36.83;93376.47;4924962;28;20572;-89
2024/01/08 06:19:41;;;;;;;124.25;60.10;;;;;;;15.70;37.51;93376.25;4935899;28;20054;-91
2024/01/08 06:22:06;;;;;;;162.50;78.22;;;;;;;15.64;38.96;93378.19;4913597;28;20039;-92
2024/01/08 06:27:06;;;;;;;127.07;65.57;;;;;;;15.73;39.14;93380.72;4983386;23;20069;-92
2024/01/08 06:29:42;;;;;;;135.57;66.82;;;;;;;15.74;39.12;93387.66;4931739;28;20478;-94
2024/01/08 06:32:35;;;;;;;164.27;66.60;;;;;;;15.68;38.26;93389.59;4909199;28;20095;-93
2024/01/08 06:38:24;;;;;;;200.88;71.78;;;;;;;15.71;39.19;93398.78;5069820;23;20060;-94
2024/01/08 06:51:11;;;;;;;165.48;63.90;;;;;;;15.76;40.15;93408.97;4992310;28;20042;-91
2024/01/08 06:53:37;;;;;;;168.88;62.92;;;;;;;15.82;39.96;93408.94;4964283;28;20068;-91
2024/01/08 06:56:17;;;;;;;147.73;63.38;;;;;;;15.80;39.91;93419.63;4961142;28;20054;-95
2024/01/08 06:58:55;;;;;;;170.65;66.97;;;;;;;15.90;39.91;93416.16;4945133;28;20671;-93
2024/01/08 07:01:22;;;;;;;208.30;72.25;;;;;;;15.85;40.37;93421.59;4931259;28;20702;-91
2024/01/08 07:03:51;;;;;;;166.60;63.20;;;;;;;15.95;40.57;93425.56;4959737;28;20068;-92
2024/01/08 07:06:17;;;;;;;236.05;72.18;;;;;;;15.99;39.98;93418.66;4946009;28;20057;-89
2024/01/08 07:08:45;;;;;;;176.05;66.40;;;;;;;15.98;39.74;93419.16;4966176;28;20054;-89
2024/01/08 07:11:24;;;;;;;201.57;65.60;;;;;;;15.95;39.91;93420.88;4973896;28;20038;-91
2024/01/08 07:13:52;;;;;;;285.98;116.38;;;;;;;15.97;40.08;93426.56;4965765;28;20042;-91
2024/01/08 07:16:18;;;;;;;164.85;63.00;;;;;;;15.95;40.24;93431.03;4960223;28;20117;-90
2024/01/08 07:19:24;;;;;;;160.48;63.40;;;;;;;15.95;39.91;93426.31;4947041;28;20054;-95
2024/01/08 07:25:25;;;;;;;187.95;65.50;;;;;;;15.95;39.99;93441.94;4822797;29;20066;-91
2024/01/08 07:28:34;;;;;;;174.80;65.78;;;;;;;15.95;40.32;93437.22;4792998;29;20090;-92
2024/01/08 07:31:03;;;;;;;161.43;62.97;;;;;;;15.92;40.42;93451.09;4770408;29;20043;-93
2024/01/08 07:33:29;;;;;;;157.60;64.05;;;;;;;15.96;40.35;93448.88;4788959;29;20123;-90
2024/01/08 07:35:59;;;;;;;147.95;62.85;;;;;;;15.97;40.04;93451.13;4770865;29;20126;-94
2024/01/08 07:38:26;;;;;;;161.32;59.95;;;;;;;16.05;40.20;93452.09;4775584;29;20058;-88
2024/01/08 07:40:53;;;;;;;162.32;60.35;;;;;;;16.03;40.07;93457.28;4782111;29;20127;-91
2024/01/08 07:43:25;;;;;;;155.70;59.33;;;;;;;16.00;40.11;93452.84;4773608;29;20122;-93
2024/01/08 07:45:51;;;;;;;136.80;63.63;;;;;;;16.03;40.18;93457.28;4787296;29;20178;-89
2024/01/08 07:48:16;;;;;;;145.95;68.95;;;;;;;16.00;40.40;93471.19;4795737;29;20047;-90
2024/01/08 07:50:42;;;;;;;176.38;67.93;;;;;;;16.03;40.45;93470.94;4776161;29;20043;-90
2024/01/08 07:53:08;;;;;;;177.13;71.90;;;;;;;15.96;39.32;93467.97;4794658;29;20058;-91
2024/01/08 07:55:33;;;;;;;158.13;66.63;;;;;;;16.02;38.92;93469.44;4768467;29;20054;-93
2024/01/08 07:57:59;;;;;;;184.38;75.53;;;;;;;15.95;39.58;93480.09;4784707;29;20111;-93
2024/01/08 08:00:30;;;;;;;199.57;84.25;;;;;;;15.95;39.56;93475.41;4787198;29;20176;-92
2024/01/08 08:02:56;;;;;;;241.55;106.90;;;;;;;16.01;39.89;93478.13;4847716;29;20044;-93
2024/01/08 08:05:23;;;;;;;260.42;119.55;;;;;;;16.08;40.35;93486.56;4861117;29;20048;-92
2024/01/08 08:07:49;;;;;;;246.52;113.63;;;;;;;16.09;40.22;93488.06;4915499;28;20039;-94
2024/01/08 08:10:15;;;;;;;238.40;113.05;;;;;;;16.08;39.96;93485.81;4955901;28;20063;-91
2024/01/08 08:12:42;;;;;;;215.43;97.53;;;;;;;16.07;40.19;93492.50;4953162;28;20055;-95
2024/01/08 08:15:08;;;;;;;251.05;103.45;;;;;;;16.08;40.07;93485.81;4968963;28;20125;-91
2024/01/08 08:17:33;;;;;;;263.23;105.75;;;;;;;16.13;39.97;93493.28;4982797;28;20042;-89
2024/01/08 08:19:59;;;;;;;251.82;105.28;;;;;;;16.11;39.97;93491.03;4967968;28;20096;-91
2024/01/08 08:22:24;;;;;;;257.92;106.47;;;;;;;16.16;40.48;93484.09;4963810;28;20046;-90
2024/01/08 08:24:50;;;;;;;250.02;104.50;;;;;;;16.11;40.45;93496.50;4952879;28;20168;-90
2024/01/08 08:27:15;;;;;;;262.80;105.10;;;;;;;16.15;40.30;93498.97;4983879;28;20113;-91
2024/01/08 08:29:59;;;;;;;225.00;102.40;;;;;;;16.12;39.08;93502.69;4989868;28;20042;-94
2024/01/08 08:32:29;;;;;;;120.88;52.28;;;;;;;15.66;34.57;93511.97;4940387;28;20441;-93
2024/01/08 08:34:55;;;;;;;96.03;44.53;;;;;;;15.56;34.45;93516.16;4957252;28;20119;-94
2024/01/08 08:37:22;;;;;;;151.82;48.40;;;;;;;15.61;34.78;93511.97;4969712;28;20493;-90
2024/01/08 08:39:47;;;;;;;160.73;52.55;;;;;;;15.63;34.95;93504.78;4952137;28;20089;-89
2024/01/08 08:42:13;;;;;;;195.98;61.33;;;;;;;15.71;35.56;93510.53;4965217;28;20045;-91
2024/01/08 08:44:39;;;;;;;223.05;70.65;;;;;;;15.83;35.99;93509.31;4938647;28;20054;-93
2024/01/08 08:47:08;;;;;;;207.60;76.65;;;;;;;15.86;38.07;93510.31;4945252;28;20073;-91
2024/01/08 08:49:33;;;;;;;238.10;87.78;;;;;;;15.85;38.62;93500.63;4959122;28;20458;-91
2024/01/08 08:51:59;;;;;;;246.43;91.93;;;;;;;15.91;38.96;93515.03;4953280;28;20050;-91
2024/01/08 08:54:24;;;;;;;320.35;110.32;;;;;;;15.81;38.19;93508.31;4958134;28;20050;-92
2024/01/08 08:56:53;;;;;;;228.68;89.18;;;;;;;15.86;38.22;93519.22;4969522;28;20046;-90
2024/01/08 08:59:19;;;;;;;261.02;101.47;;;;;;;15.82;38.11;93518.72;4948125;28;20031;-91
2024/01/08 09:01:48;;;;;;;241.95;96.60;;;;;;;15.80;37.66;93513.03;4959015;28;20053;-89
2024/01/08 09:04:14;;;;;;;220.82;91.72;;;;;;;15.75;38.45;93536.31;4960203;28;20039;-88
2024/01/08 09:06:40;;;;;;;248.98;98.13;;;;;;;15.74;38.13;93526.63;4963564;28;20053;-88
2024/01/08 09:09:08;;;;;;;236.38;102.60;;;;;;;15.77;38.04;93538.53;4951298;28;20049;-90
2024/01/08 09:11:35;;;;;;;249.07;100.15;;;;;;;15.75;37.34;93541.00;4969588;28;20085;-90
2024/01/08 09:14:01;;;;;;;190.57;72.80;;;;;;;15.80;35.34;93545.00;4972775;28;20046;-92
2024/01/08 09:16:27;;;;;;;269.33;86.38;;;;;;;15.67;35.60;93546.19;4956702;28;20040;-88
2024/01/08 09:18:53;;;;;;;326.27;95.75;;;;;;;15.65;35.57;93548.66;4940890;28;20047;-91
2024/01/08 09:21:18;;;;;;;340.98;112.90;;;;;;;15.83;36.32;93552.91;4979409;28;20045;-92
2024/01/08 09:23:44;;;;;;;306.13;127.75;;;;;;;15.90;37.26;93552.47;4940296;28;20038;-91
2024/01/08 09:26:15;;;;;;;304.98;123.75;;;;;;;15.89;37.57;93550.22;4958567;28;20555;-92
2024/01/08 09:28:55;;;;;;;316.17;127.35;;;;;;;15.89;37.93;93561.88;4941551;28;20047;-90
2024/01/08 09:32:06;;;;;;;302.30;125.00;;;;;;;15.88;38.14;93563.09;4955759;28;20823;-93
2024/01/08 09:34:32;;;;;;;318.85;128.73;;;;;;;15.85;38.08;93560.59;4927617;28;20054;-91
2024/01/08 09:37:04;;;;;;;285.67;118.43;;;;;;;15.93;37.79;93559.66;4957190;28;20042;-90
2024/01/08 09:39:35;;;;;;;303.25;122.65;;;;;;;15.95;38.12;93565.38;4925856;28;20050;-90
2024/01/08 09:42:03;;;;;;;280.40;113.53;;;;;;;15.98;38.10;93563.63;4943054;28;20128;-88
2024/01/08 09:44:32;;;;;;;311.38;120.93;;;;;;;15.89;38.55;93564.59;4889497;28;20128;-92
2024/01/08 09:46:57;;;;;;;282.17;115.82;;;;;;;15.99;38.07;93554.97;4943320;28;20132;-91
2024/01/08 09:49:59;;;;;;;304.90;123.55;;;;;;;15.94;38.26;93563.88;4955980;28;20401;-90
2024/01/08 09:53:02;;;;;;;311.95;124.65;;;;;;;15.97;37.82;93560.16;4949591;28;20043;-89
2024/01/08 09:55:40;;;;;;;312.50;134.50;;;;;;;15.94;38.37;93561.16;4912690;29;20043;-90
2024/01/08 09:58:06;;;;;;;299.45;129.52;;;;;;;15.99;38.41;93559.69;4933091;28;20047;-90
2024/01/08 10:00:33;;;;;;;291.48;123.40;;;;;;;15.95;38.45;93553.72;4948165;28;20042;-90
2024/01/08 10:02:58;;;;;;;277.52;119.32;;;;;;;16.06;37.90;93548.28;4894384;29;20419;-89
2024/01/08 10:05:26;;;;;;;273.17;113.80;;;;;;;16.00;38.42;93559.19;4885602;28;20150;-89
2024/01/08 10:07:52;;;;;;;251.23;109.82;;;;;;;16.07;38.51;93553.25;4905550;29;20671;-90
2024/01/08 10:10:19;;;;;;;238.52;105.57;;;;;;;16.13;38.60;93552.53;4882827;28;20047;-90
2024/01/08 10:12:47;;;;;;;253.90;103.45;;;;;;;16.10;38.77;93552.25;4900194;29;20051;-91
2024/01/08 10:15:18;;;;;;;248.30;112.88;;;;;;;16.08;38.85;93551.25;4876812;29;20181;-90
2024/01/08 10:18:08;;;;;;;244.43;103.40;;;;;;;16.12;38.45;93551.78;4881683;29;20138;-89
2024/01/08 10:21:11;;;;;;;286.92;112.13;;;;;;;16.07;38.96;93542.34;4900366;29;20044;-90
2024/01/08 10:24:06;;;;;;;235.00;97.72;;;;;;;16.08;38.53;93545.81;4942652;23;20054;-92
2024/01/08 10:26:32;;;;;;;206.48;94.75;;;;;;;16.10;38.99;93543.34;4954614;28;20051;-89
2024/01/08 10:28:57;;;;;;;335.00;165.32;;;;;;;16.23;38.55;93538.19;4976851;28;20497;-91
2024/01/08 10:31:23;;;;;;;232.98;105.40;;;;;;;16.16;38.43;93535.91;4950925;28;20161;-90
2024/01/08 10:33:51;;;;;;;258.65;117.13;;;;;;;16.16;38.67;93535.91;4953611;28;20035;-90
2024/01/08 10:39:05;;;;;;;284.02;125.45;;;;;;;16.14;38.76;93554.00;4922806;28;20613;-92
2024/01/08 10:41:31;;;;;;;221.52;109.28;;;;;;;16.18;38.88;93547.09;4913844;29;20071;-92
2024/01/08 10:44:00;;;;;;;298.90;126.57;;;;;;;16.20;38.89;93541.88;4939160;29;20043;-91
2024/01/08 10:46:27;;;;;;;261.00;119.88;;;;;;;16.21;38.77;93548.09;4933579;29;20039;-91
2024/01/08 10:48:52;;;;;;;260.98;126.95;;;;;;;16.18;38.65;93538.91;4930273;29;20114;-92
2024/01/08 10:51:28;;;;;;;300.95;139.80;;;;;;;16.15;38.82;93542.63;4940066;29;20035;-91
2024/01/08 10:54:02;;;;;;;295.92;149.40;;;;;;;16.19;38.77;93545.84;4904043;29;20619;-89
2024/01/08 10:56:33;;;;;;;325.83;155.80;;;;;;;16.22;38.95;93544.13;4871937;29;20052;-90
2024/01/08 10:59:01;;;;;;;;;;;;;;;16.16;39.09;93535.91;4928002;29;20044;-88
2024/01/08 11:01:26;;;;;;;317.55;162.82;;;;;;;16.14;38.90;93535.66;4944653;28;19933;-90
2024/01/08 11:04:08;;;;;;;341.25;170.88;;;;;;;16.10;38.86;93543.34;4945030;29;20498;-90
2024/01/08 11:06:34;;;;;;;335.17;170.55;;;;;;;16.14;38.86;93543.09;4903301;29;20054;-91
2024/01/08 11:09:04;;;;;;;335.90;178.30;;;;;;;16.10;39.19;93533.19;4930487;29;20191;-91
2024/01/08 11:11:33;;;;;;;294.08;155.05;;;;;;;16.23;38.99;93535.44;4930957;29;20043;-91
2024/01/08 11:13:59;;;;;;;281.25;141.80;;;;;;;16.18;38.98;93528.00;4903413;29;20054;-91
2024/01/08 11:16:28;;;;;;;264.75;139.35;;;;;;;16.18;39.26;93535.44;4924978;28;20044;-91
2024/01/08 11:19:18;;;;;;;256.38;135.68;;;;;;;16.18;39.26;93538.16;4944267;28;20043;-91
2024/01/08 11:21:45;;;;;;;297.88;170.07;;;;;;;16.22;39.10;93539.41;5245022;22;20050;-88
2024/01/08 11:24:10;;;;;;;406.15;298.98;;;;;;;16.26;39.24;93541.88;4967155;28;20086;-88
2024/01/08 11:26:43;;;;;;;508.13;357.00;;;;;;;16.20;39.37;93541.88;4961672;28;20408;-89
2024/01/08 11:29:09;;;;;;;336.45;217.43;;;;;;;16.25;39.35;93538.41;4983597;28;20049;-88
2024/01/08 11:31:50;;;;;;;283.23;158.65;;;;;;;16.20;39.19;93543.88;4952768;28;20043;-88
2024/01/08 11:35:10;;;;;;;308.88;201.38;;;;;;;16.21;39.45;93550.81;4996287;28;20069;-89
2024/01/08 11:37:37;;;;;;;299.65;197.65;;;;;;;16.24;39.35;93549.84;4951477;28;20428;-88
2024/01/08 11:40:03;;;;;;;242.32;135.90;;;;;;;16.25;39.55;93554.03;4928907;29;20050;-88
2024/01/08 11:42:29;;;;;;;229.90;127.97;;;;;;;16.24;38.98;93552.56;4922196;29;20055;-89
2024/01/08 11:44:57;;;;;;;225.15;122.38;;;;;;;16.26;39.41;93558.25;4937834;28;20163;-90
2024/01/08 11:47:23;;;;;;;237.60;150.38;;;;;;;16.30;39.29;93562.22;4894473;29;20118;-89
2024/01/08 11:49:51;;;;;;;191.80;110.43;;;;;;;16.24;39.49;93563.47;4928645;29;20055;-89
2024/01/08 11:52:18;;;;;;;185.38;110.85;;;;;;;16.24;39.18;93552.56;4912388;29;20050;-87
2024/01/08 11:54:57;;;;;;;194.70;111.65;;;;;;;16.26;39.11;93563.69;4921613;29;20083;-88